Urb Monte Sol, Puerto Rico
Current Conditions -  °F | °C
As of 11:56 AM on Thursday 30 Oct 2014 (Local Time) from TJSJ Reporting Station
Scattered Clouds Scattered Clouds  
Wind Chill: 87°   Ceiling: Unl
Heat Index: 99°   Visibility: 10mi
Dew Point: 77°   Wind: 6mph
Humidity: 72%   Direction: 320°NW
Pressure: 29.84"   Gusts: NA
Location:  18.3893°N, 66.2481°W
Report Text: TJSJ 301556Z 32005KT 10SM FEW030 SCT035 31/25 A2984 RMK AO2 SLP102 T03060250
Loading
Personal Weather Stations






























Interactive Weather Map
Tropical Storm Tracking
New forecast layout! Learn more

10-Day Weather Forecast

Advertisements
Track Severe Weather on mobile